Time;durP1;ratioP1;P1;durP2;ratioP2;P2;SDS_P1;SDS_P2;PMS_P1;PMS_P2;Temp;Humidity;BMP_temperature;BMP_pressure;BME280_temperature;BME280_humidity;BME280_pressure;Samples;Min_cycle;Max_cycle;Signal;HPM_P1;HPM_P2
2023/12/04 00:02:15;;;;;;;18.20;11.13;;;5.00;93.90;;;;;;5006109;28;20193;-80
2023/12/04 00:04:41;;;;;;;14.30;10.43;;;5.10;93.90;;;;;;4995420;28;20490;-80
2023/12/04 00:07:09;;;;;;;16.40;11.67;;;5.00;93.80;;;;;;4992875;28;20842;-80
2023/12/04 00:09:35;;;;;;;13.70;10.73;;;5.10;93.90;;;;;;5020435;28;20416;-81
2023/12/04 00:12:01;;;;;;;15.77;10.37;;;5.00;93.80;;;;;;5022229;28;20240;-79
2023/12/04 00:14:27;;;;;;;17.93;11.20;;;5.00;93.70;;;;;;5014636;28;20432;-79
2023/12/04 00:16:52;;;;;;;15.53;11.17;;;5.00;93.60;;;;;;5014869;28;20496;-81
2023/12/04 00:19:18;;;;;;;17.63;11.30;;;5.00;93.60;;;;;;5018400;28;20432;-78
2023/12/04 00:21:49;;;;;;;16.93;11.50;;;5.00;93.60;;;;;;5008332;28;20451;-81
2023/12/04 00:24:17;;;;;;;14.48;10.23;;;5.00;93.60;;;;;;5011364;28;20452;-81
2023/12/04 00:26:45;;;;;;;14.93;9.90;;;5.00;93.60;;;;;;5008611;28;20225;-81
2023/12/04 00:29:13;;;;;;;16.50;10.85;;;5.00;93.60;;;;;;5009674;28;20289;-81
2023/12/04 00:31:41;;;;;;;17.67;11.18;;;5.00;93.70;;;;;;5009847;28;20195;-78
2023/12/04 00:34:09;;;;;;;15.88;10.23;;;5.00;93.60;;;;;;5004861;28;20196;-80
2023/12/04 00:36:40;;;;;;;14.85;9.52;;;5.00;93.60;;;;;;5009900;28;20544;-82
2023/12/04 00:39:05;;;;;;;15.77;10.15;;;5.00;93.60;;;;;;4994839;28;20352;-81
2023/12/04 00:41:31;;;;;;;11.40;9.37;;;5.00;93.60;;;;;;5005338;28;20265;-81
2023/12/04 00:43:57;;;;;;;12.57;9.23;;;5.00;93.50;;;;;;5007693;28;20468;-81
2023/12/04 00:46:25;;;;;;;13.33;9.40;;;5.00;93.50;;;;;;5011541;28;20510;-81
2023/12/04 00:48:56;;;;;;;11.70;8.95;;;5.00;93.50;;;;;;5005329;28;20441;-81
2023/12/04 00:51:22;;;;;;;15.15;10.00;;;5.00;93.50;;;;;;5012540;28;20194;-81
2023/12/04 00:53:50;;;;;;;12.33;9.23;;;5.00;93.50;;;;;;5003194;28;20186;-81
2023/12/04 00:56:16;;;;;;;15.20;8.43;;;5.00;93.50;;;;;;4992554;28;20456;-80
2023/12/04 00:58:46;;;;;;;11.35;8.75;;;5.00;93.40;;;;;;4980527;28;20194;-81
2023/12/04 01:01:12;;;;;;;11.15;8.20;;;5.00;93.40;;;;;;5006981;28;20290;-80
2023/12/04 01:03:38;;;;;;;12.23;9.60;;;5.00;93.40;;;;;;5005718;28;20217;-81
2023/12/04 01:06:04;;;;;;;13.50;9.47;;;5.00;93.40;;;;;;4996048;28;20214;-81
2023/12/04 01:08:30;;;;;;;14.82;9.98;;;5.00;93.50;;;;;;4997001;28;20553;-81
2023/12/04 01:10:56;;;;;;;14.87;8.87;;;5.00;93.40;;;;;;5007974;28;20270;-80
2023/12/04 01:13:27;;;;;;;11.70;9.32;;;5.00;93.40;;;;;;4999619;28;20449;-82
2023/12/04 01:15:53;;;;;;;12.95;9.70;;;5.00;93.30;;;;;;4986564;28;20206;-81
2023/12/04 01:18:19;;;;;;;14.20;9.77;;;5.00;93.40;;;;;;5006007;28;20708;-81
2023/12/04 01:20:45;;;;;;;11.65;8.45;;;5.00;93.40;;;;;;4999580;28;20421;-81
2023/12/04 01:23:11;;;;;;;10.67;7.90;;;5.00;93.40;;;;;;5003058;28;20823;-82
2023/12/04 01:25:39;;;;;;;12.60;9.07;;;5.00;93.40;;;;;;5002413;28;20224;-80
2023/12/04 01:28:05;;;;;;;16.63;8.97;;;5.00;93.30;;;;;;5008470;28;20285;-81
2023/12/04 01:30:36;;;;;;;12.88;9.02;;;5.00;93.30;;;;;;4979175;28;20513;-81
2023/12/04 01:33:02;;;;;;;11.52;8.20;;;5.00;93.30;;;;;;5009589;28;20596;-80
2023/12/04 01:35:28;;;;;;;10.20;8.53;;;5.00;93.40;;;;;;5006174;28;20309;-79
2023/12/04 01:37:56;;;;;;;12.40;9.30;;;5.00;93.30;;;;;;4984683;28;20476;-81
2023/12/04 01:40:22;;;;;;;11.82;8.10;;;5.00;93.40;;;;;;5000107;28;20441;-81
2023/12/04 01:42:50;;;;;;;13.77;9.27;;;5.00;93.30;;;;;;5008648;28;20666;-80
2023/12/04 01:45:19;;;;;;;12.30;8.63;;;5.00;93.30;;;;;;4999321;28;20472;-81
2023/12/04 01:47:48;;;;;;;11.63;8.75;;;5.00;93.30;;;;;;5004118;28;20721;-81
2023/12/04 01:50:15;;;;;;;11.55;8.73;;;5.00;93.20;;;;;;4991327;28;20170;-81
2023/12/04 01:52:44;;;;;;;11.40;8.70;;;5.00;93.20;;;;;;5005552;28;20182;-80
2023/12/04 01:55:10;;;;;;;11.90;8.47;;;5.00;93.20;;;;;;4989018;28;20224;-80
2023/12/04 01:57:38;;;;;;;10.18;7.75;;;5.00;93.20;;;;;;4975627;28;20893;-80
2023/12/04 02:00:11;;;;;;;10.25;8.15;;;5.00;93.20;;;;;;4999543;28;20208;-79
2023/12/04 02:02:44;;;;;;;9.60;8.30;;;5.00;93.10;;;;;;5002627;28;20256;-79
2023/12/04 02:05:12;;;;;;;12.40;9.60;;;5.00;93.10;;;;;;4992729;28;20296;-79
2023/12/04 02:07:41;;;;;;;13.02;8.98;;;5.00;93.00;;;;;;5005965;28;20697;-79
2023/12/04 02:10:07;;;;;;;13.38;9.05;;;5.00;93.00;;;;;;5000941;28;20767;-79
2023/12/04 02:12:35;;;;;;;11.82;8.98;;;5.00;93.00;;;;;;4998331;28;20260;-79
2023/12/04 02:15:02;;;;;;;10.15;7.60;;;5.00;92.90;;;;;;5002771;28;20200;-79
2023/12/04 02:17:29;;;;;;;10.55;8.27;;;5.00;92.90;;;;;;5007699;28;20268;-78
2023/12/04 02:19:57;;;;;;;11.27;8.50;;;5.00;93.00;;;;;;4984426;28;20237;-78
2023/12/04 02:22:23;;;;;;;10.00;7.63;;;5.00;93.00;;;;;;4992944;28;20300;-79
2023/12/04 02:24:49;;;;;;;10.40;8.00;;;5.00;93.00;;;;;;4999638;28;20186;-80
2023/12/04 02:27:25;;;;;;;9.00;7.70;;;5.00;92.90;;;;;;5001180;28;20911;-79
2023/12/04 02:29:56;;;;;;;13.20;9.48;;;5.00;92.90;;;;;;5000498;28;20468;-79
2023/12/04 02:32:24;;;;;;;10.23;8.00;;;5.00;92.90;;;;;;5001070;28;20225;-79
2023/12/04 02:34:52;;;;;;;10.48;7.75;;;5.00;92.80;;;;;;5001342;28;20203;-79
2023/12/04 02:37:22;;;;;;;9.75;8.25;;;4.90;92.70;;;;;;5004348;28;20217;-79
2023/12/04 02:39:52;;;;;;;12.27;8.30;;;4.90;92.70;;;;;;5003449;28;20236;-79
2023/12/04 02:42:24;;;;;;;11.00;7.82;;;5.00;92.70;;;;;;4997577;28;20201;-79
2023/12/04 02:44:53;;;;;;;11.93;9.27;;;5.00;92.70;;;;;;4978224;28;20268;-79
2023/12/04 02:47:19;;;;;;;9.55;7.93;;;5.00;92.60;;;;;;5006334;28;20586;-78
2023/12/04 02:49:50;;;;;;;11.23;8.20;;;5.00;92.60;;;;;;5000196;28;20198;-79
2023/12/04 02:52:18;;;;;;;11.80;8.13;;;5.00;92.60;;;;;;4998067;28;20206;-79
2023/12/04 02:54:48;;;;;;;11.32;8.60;;;5.00;92.50;;;;;;4999142;28;20198;-78
2023/12/04 02:57:20;;;;;;;11.52;8.05;;;5.00;92.50;;;;;;4996244;28;20317;-78
2023/12/04 02:59:48;;;;;;;9.73;7.75;;;5.00;92.50;;;;;;4999480;28;20222;-80
2023/12/04 03:02:14;;;;;;;9.95;7.68;;;5.00;92.50;;;;;;5002333;28;20211;-78
2023/12/04 03:04:45;;;;;;;12.18;8.68;;;4.90;92.40;;;;;;5002721;28;20221;-79
2023/12/04 03:07:11;;;;;;;10.45;7.95;;;5.00;92.80;;;;;;4996372;28;20317;-79
2023/12/04 03:09:37;;;;;;;9.87;8.07;;;5.00;92.40;;;;;;5006485;28;20300;-79
2023/12/04 03:12:12;;;;;;;9.30;7.65;;;4.90;92.30;;;;;;4989359;28;20479;-78
2023/12/04 03:14:43;;;;;;;10.07;7.55;;;5.00;92.30;;;;;;5000949;28;20684;-80
2023/12/04 03:17:11;;;;;;;10.07;7.97;;;4.90;92.40;;;;;;4985056;28;20312;-79
2023/12/04 03:19:36;;;;;;;11.43;8.25;;;5.00;92.40;;;;;;4985743;28;20191;-80
2023/12/04 03:22:05;;;;;;;8.40;7.30;;;5.00;92.40;;;;;;5009228;28;20214;-79
2023/12/04 03:24:36;;;;;;;11.52;8.93;;;4.90;92.40;;;;;;5004875;28;20194;-79
2023/12/04 03:27:04;;;;;;;8.57;7.65;;;4.90;92.30;;;;;;4987543;28;20221;-79
2023/12/04 03:29:30;;;;;;;9.40;8.02;;;4.90;92.40;;;;;;4992961;28;20292;-79
2023/12/04 03:31:58;;;;;;;10.37;8.17;;;4.90;92.30;;;;;;5016562;23;20230;-71
2023/12/04 03:34:24;;;;;;;9.20;8.13;;;4.90;92.10;;;;;;4991995;28;21078;-71
2023/12/04 03:36:52;;;;;;;9.30;7.93;;;4.90;92.00;;;;;;5012576;28;20213;-70
2023/12/04 03:39:20;;;;;;;10.63;8.00;;;4.90;92.40;;;;;;4963839;28;20437;-71
2023/12/04 03:41:47;;;;;;;8.93;7.35;;;5.00;92.10;;;;;;4965183;28;20252;-71
2023/12/04 03:44:13;;;;;;;9.20;7.30;;;4.90;92.30;;;;;;4975347;28;20226;-71
2023/12/04 03:46:39;;;;;;;10.40;7.55;;;4.90;92.00;;;;;;4981152;28;20754;-71
2023/12/04 03:49:05;;;;;;;9.73;8.20;;;4.90;91.90;;;;;;4959321;28;20206;-71
2023/12/04 03:51:34;;;;;;;10.45;7.82;;;4.90;91.90;;;;;;4975435;28;20441;-71
2023/12/04 03:54:00;;;;;;;10.45;8.38;;;4.90;91.90;;;;;;4976966;28;20186;-71
2023/12/04 03:56:26;;;;;;;8.57;7.40;;;4.90;92.00;;;;;;4980994;28;20197;-71
2023/12/04 03:58:54;;;;;;;9.23;7.32;;;4.90;91.90;;;;;;4980921;28;20461;-71
2023/12/04 04:01:25;;;;;;;8.60;7.67;;;5.00;91.90;;;;;;4982602;28;20832;-71
2023/12/04 04:03:51;;;;;;;8.93;7.28;;;4.90;91.70;;;;;;4980619;28;20445;-71
2023/12/04 04:06:19;;;;;;;9.10;7.60;;;4.90;91.70;;;;;;4979175;28;20265;-71
2023/12/04 04:08:48;;;;;;;10.43;7.70;;;4.90;91.70;;;;;;4981397;28;20213;-71
2023/12/04 04:11:14;;;;;;;8.50;7.60;;;4.90;91.70;;;;;;4978572;28;20214;-71
2023/12/04 04:13:45;;;;;;;8.70;7.03;;;4.90;91.70;;;;;;4976121;28;20619;-71
2023/12/04 04:16:17;;;;;;;9.20;7.78;;;4.90;92.00;;;;;;4969371;28;20673;-70
2023/12/04 04:18:43;;;;;;;10.45;8.02;;;4.90;91.60;;;;;;4976128;28;20751;-70
2023/12/04 04:21:09;;;;;;;10.63;8.00;;;4.90;91.60;;;;;;4978882;28;20182;-70
2023/12/04 04:23:38;;;;;;;8.82;7.13;;;4.90;91.50;;;;;;4980967;28;20763;-71
2023/12/04 04:26:04;;;;;;;9.45;7.60;;;4.90;91.40;;;;;;4981214;28;20304;-70
2023/12/04 04:28:30;;;;;;;8.13;7.22;;;4.90;91.40;;;;;;4974188;28;20744;-71
2023/12/04 04:30:58;;;;;;;9.33;6.63;;;4.90;91.40;;;;;;4981400;28;20362;-70
2023/12/04 04:33:32;;;;;;;8.70;7.30;;;4.90;91.40;;;;;;4996807;28;21788;-71
2023/12/04 04:35:58;;;;;;;8.88;7.28;;;4.90;91.30;;;;;;4981889;28;20201;-71
2023/12/04 04:38:26;;;;;;;7.18;6.47;;;4.90;91.30;;;;;;4975984;28;20225;-70
2023/12/04 04:40:52;;;;;;;7.97;6.93;;;4.90;91.30;;;;;;4975719;28;20237;-71
2023/12/04 04:43:19;;;;;;;7.95;6.45;;;4.90;91.30;;;;;;4978585;28;20186;-71
2023/12/04 04:45:45;;;;;;;8.40;6.90;;;4.90;91.20;;;;;;4980163;28;20757;-71
2023/12/04 04:48:16;;;;;;;7.50;6.70;;;4.90;91.20;;;;;;4976693;28;20692;-71
2023/12/04 04:50:47;;;;;;;14.07;6.93;;;4.90;91.10;;;;;;4979664;28;20186;-70
2023/12/04 04:53:13;;;;;;;9.27;7.47;;;4.90;91.10;;;;;;4980429;28;20281;-71
2023/12/04 04:55:39;;;;;;;8.30;7.00;;;4.90;91.10;;;;;;4977103;28;20199;-71
2023/12/04 04:58:07;;;;;;;8.50;7.60;;;4.90;91.10;;;;;;4981846;28;20465;-71
2023/12/04 05:00:35;;;;;;;7.40;6.43;;;4.90;91.40;;;;;;4980756;28;20656;-71
2023/12/04 05:03:06;;;;;;;8.85;7.43;;;4.90;91.00;;;;;;4974483;28;20454;-71
2023/12/04 05:05:32;;;;;;;10.13;7.60;;;4.90;91.00;;;;;;4962895;28;20270;-71
2023/12/04 05:08:01;;;;;;;9.88;7.07;;;4.90;91.00;;;;;;4975268;28;20304;-71
2023/12/04 05:10:26;;;;;;;8.00;7.20;;;4.90;91.00;;;;;;4977382;28;20304;-71
2023/12/04 05:12:55;;;;;;;9.53;7.50;;;4.90;91.10;;;;;;4973912;28;21180;-71
2023/12/04 05:15:23;;;;;;;8.95;6.82;;;4.90;91.00;;;;;;4971391;28;20529;-71
2023/12/04 05:17:51;;;;;;;8.43;7.13;;;4.90;91.00;;;;;;4964427;28;20217;-71
2023/12/04 05:20:19;;;;;;;8.25;6.95;;;4.90;91.00;;;;;;4982809;28;20194;-71
2023/12/04 05:22:45;;;;;;;9.82;7.70;;;4.90;91.10;;;;;;4960810;28;20189;-71
2023/12/04 05:25:14;;;;;;;8.13;6.82;;;4.90;90.90;;;;;;4979822;28;20206;-71
2023/12/04 05:27:42;;;;;;;8.82;6.72;;;4.90;90.90;;;;;;4977262;28;20217;-74
2023/12/04 05:30:10;;;;;;;9.73;7.83;;;4.90;90.80;;;;;;4993149;28;20217;-72
2023/12/04 05:32:37;;;;;;;10.77;8.05;;;4.90;90.80;;;;;;4969960;28;20218;-70
2023/12/04 05:35:03;;;;;;;9.63;7.30;;;4.90;90.80;;;;;;4963332;28;20244;-69
2023/12/04 05:37:29;;;;;;;9.38;7.70;;;4.90;90.80;;;;;;4977217;28;20220;-67
2023/12/04 05:40:00;;;;;;;8.90;7.32;;;4.90;90.80;;;;;;4978303;28;20237;-67
2023/12/04 05:42:26;;;;;;;8.77;7.00;;;4.90;90.70;;;;;;4995333;28;20186;-67
2023/12/04 05:44:57;;;;;;;8.80;7.10;;;4.90;90.80;;;;;;4975465;28;20198;-68
2023/12/04 05:47:23;;;;;;;10.07;7.10;;;4.90;90.80;;;;;;4992861;28;20238;-68
2023/12/04 05:49:51;;;;;;;8.93;7.22;;;4.90;90.90;;;;;;4961118;28;20242;-68
2023/12/04 05:52:20;;;;;;;9.80;7.10;;;4.90;90.90;;;;;;4977610;28;20202;-68
2023/12/04 05:54:49;;;;;;;9.13;7.18;;;4.90;90.90;;;;;;4978413;28;20201;-68
2023/12/04 05:57:16;;;;;;;10.30;7.90;;;4.90;90.90;;;;;;4979014;28;20217;-66
2023/12/04 05:59:42;;;;;;;8.40;7.38;;;4.90;90.90;;;;;;4976940;28;20459;-70
2023/12/04 06:02:15;;;;;;;7.85;6.53;;;4.90;90.80;;;;;;4973667;28;20245;-68
2023/12/04 06:04:41;;;;;;;9.70;8.05;;;4.90;90.90;;;;;;4977523;28;21437;-68
2023/12/04 06:07:08;;;;;;;8.98;8.02;;;4.90;90.80;;;;;;4976578;28;20219;-67
2023/12/04 06:09:36;;;;;;;8.80;7.25;;;4.90;90.80;;;;;;4950744;28;20636;-68
2023/12/04 06:12:09;;;;;;;10.57;8.38;;;4.90;90.80;;;;;;4978461;28;20193;-67
2023/12/04 06:14:37;;;;;;;11.07;8.15;;;4.90;90.80;;;;;;4954890;28;20227;-68
2023/12/04 06:17:05;;;;;;;10.95;8.23;;;4.90;90.80;;;;;;4978594;28;20226;-68
2023/12/04 06:19:33;;;;;;;9.95;8.07;;;4.90;90.80;;;;;;4973158;28;20199;-68
2023/12/04 06:21:59;;;;;;;10.25;7.97;;;4.90;90.70;;;;;;4975137;28;20916;-68
2023/12/04 06:24:28;;;;;;;9.30;7.70;;;4.90;90.70;;;;;;4970301;28;20245;-67
2023/12/04 06:26:57;;;;;;;8.25;7.35;;;4.90;90.70;;;;;;4972590;28;20581;-67
2023/12/04 06:29:25;;;;;;;11.05;8.05;;;4.90;90.60;;;;;;4974918;28;20273;-68
2023/12/04 06:31:57;;;;;;;10.18;8.90;;;4.90;90.60;;;;;;4978615;28;20198;-68
2023/12/04 06:34:26;;;;;;;10.93;7.85;;;4.80;90.50;;;;;;4993594;28;20254;-68
2023/12/04 06:36:58;;;;;;;12.45;8.88;;;4.80;90.50;;;;;;4973645;28;20705;-67
2023/12/04 06:39:32;;;;;;;9.05;7.60;;;4.90;90.70;;;;;;4978656;28;20189;-68
2023/12/04 06:41:58;;;;;;;11.32;8.60;;;4.80;90.60;;;;;;4980437;28;20198;-68
2023/12/04 06:44:25;;;;;;;11.57;8.82;;;4.80;90.70;;;;;;4976971;28;20241;-68
2023/12/04 06:46:54;;;;;;;12.60;9.00;;;4.80;90.60;;;;;;4980515;28;20225;-68
2023/12/04 06:49:20;;;;;;;9.38;7.70;;;4.80;90.70;;;;;;4978645;28;20752;-68
2023/12/04 06:52:03;;;;;;;11.90;8.85;;;4.90;90.80;;;;;;4975084;28;20183;-70
2023/12/04 06:54:29;;;;;;;9.75;8.55;;;4.90;90.70;;;;;;4941445;28;20228;-32
2023/12/04 06:56:55;;;;;;;10.50;8.40;;;4.80;90.60;;;;;;4941527;29;20180;-28
2023/12/04 06:59:21;;;;;;;8.73;7.83;;;4.80;90.50;;;;;;4942880;28;20774;-32
2023/12/04 07:01:49;;;;;;;8.63;7.65;;;4.80;90.50;;;;;;4942970;28;20446;-29
2023/12/04 07:04:20;;;;;;;10.15;8.20;;;4.80;90.60;;;;;;4942556;28;20222;-31
2023/12/04 07:06:47;;;;;;;10.30;8.45;;;4.80;90.60;;;;;;4941080;29;20750;-29
2023/12/04 07:09:13;;;;;;;10.48;8.43;;;4.80;90.60;;;;;;4942568;28;20834;-32
2023/12/04 07:11:39;;;;;;;9.85;8.38;;;4.80;90.60;;;;;;4941237;29;20242;-31
2023/12/04 07:14:09;;;;;;;11.75;8.32;;;4.80;90.60;;;;;;4942990;28;20216;-31
2023/12/04 07:16:44;;;;;;;9.55;8.43;;;4.80;90.70;;;;;;4943714;28;20188;-29
2023/12/04 07:19:10;;;;;;;11.98;9.10;;;4.80;90.60;;;;;;4940802;29;20757;-30
2023/12/04 07:21:37;;;;;;;11.52;7.95;;;4.80;90.60;;;;;;4942560;28;20195;-34
2023/12/04 07:24:06;;;;;;;11.05;8.43;;;4.80;90.70;;;;;;4943270;28;20235;-31
2023/12/04 07:26:35;;;;;;;10.43;8.18;;;4.80;90.60;;;;;;4942696;29;20223;-31
2023/12/04 07:29:02;;;;;;;10.80;8.45;;;4.80;90.60;;;;;;4943533;28;20210;-27
2023/12/04 07:31:29;;;;;;;10.55;8.38;;;4.80;90.70;;;;;;4942699;29;20172;-33
2023/12/04 07:33:55;;;;;;;9.60;7.47;;;4.80;90.70;;;;;;4943948;28;20212;-33
2023/12/04 07:36:26;;;;;;;8.93;7.75;;;4.80;90.70;;;;;;4945254;29;21009;-29
2023/12/04 07:38:53;;;;;;;9.77;7.40;;;4.80;90.60;;;;;;4944969;28;20176;-32
2023/12/04 07:41:21;;;;;;;9.13;7.75;;;4.80;90.70;;;;;;4945212;29;20670;-34
2023/12/04 07:43:54;;;;;;;8.27;7.20;;;4.80;90.80;;;;;;4945451;28;20226;-34
2023/12/04 07:46:22;;;;;;;9.65;7.43;;;4.80;90.80;;;;;;4948362;28;20215;-31
2023/12/04 07:48:48;;;;;;;9.90;8.20;;;4.80;90.70;;;;;;4949429;28;20211;-33
2023/12/04 07:51:17;;;;;;;9.30;7.43;;;4.80;90.60;;;;;;4947221;29;20670;-31
2023/12/04 07:53:43;;;;;;;9.67;8.60;;;4.80;90.70;;;;;;4946889;28;20211;-33
2023/12/04 07:56:12;;;;;;;8.55;7.25;;;4.80;90.60;;;;;;4928894;29;20442;-29
2023/12/04 07:58:42;;;;;;;10.73;8.88;;;4.80;90.60;;;;;;4945780;28;20189;-32
2023/12/04 08:01:12;;;;;;;9.55;8.60;;;4.80;90.60;;;;;;4944392;28;20746;-35
2023/12/04 08:03:40;;;;;;;9.37;8.00;;;4.80;90.50;;;;;;4945412;28;20359;-33
2023/12/04 08:06:06;;;;;;;10.82;7.80;;;4.80;90.40;;;;;;4944483;28;20509;-32
2023/12/04 08:08:35;;;;;;;9.77;7.75;;;4.80;90.30;;;;;;4945073;28;20199;-32
2023/12/04 08:11:03;;;;;;;11.95;8.50;;;4.80;90.30;;;;;;4946895;28;20547;-33
2023/12/04 08:13:29;;;;;;;8.93;7.57;;;4.80;90.20;;;;;;4944844;28;20568;-29
2023/12/04 08:15:55;;;;;;;10.73;8.70;;;4.80;90.10;;;;;;4944730;28;20192;-34
2023/12/04 08:18:24;;;;;;;9.45;8.05;;;4.80;90.00;;;;;;4944094;28;20423;-30
2023/12/04 08:20:50;;;;;;;8.75;7.57;;;4.80;90.00;;;;;;4941834;28;20638;-30
2023/12/04 08:23:16;;;;;;;11.32;8.85;;;4.80;90.00;;;;;;4941351;28;20198;-35
2023/12/04 08:25:45;;;;;;;9.03;7.83;;;4.80;90.10;;;;;;4941846;29;20726;-33
2023/12/04 08:28:11;;;;;;;9.50;7.60;;;4.80;90.10;;;;;;4941513;29;20880;-33
2023/12/04 08:30:40;;;;;;;8.98;7.20;;;4.80;90.10;;;;;;4942975;28;20203;-33
2023/12/04 08:33:06;;;;;;;9.00;7.67;;;4.80;90.10;;;;;;4958126;28;20180;-33
2023/12/04 08:35:34;;;;;;;8.35;7.13;;;4.80;90.20;;;;;;4944001;28;20419;-28
2023/12/04 08:38:03;;;;;;;7.72;6.75;;;4.80;90.10;;;;;;4944159;28;20180;-29
2023/12/04 08:40:29;;;;;;;10.45;8.27;;;4.80;90.00;;;;;;4942223;28;20231;-30
2023/12/04 08:42:55;;;;;;;8.48;6.72;;;4.80;89.90;;;;;;4926366;29;20319;-35
2023/12/04 08:45:21;;;;;;;8.70;7.13;;;4.80;90.00;;;;;;4941738;28;20208;-32
2023/12/04 08:47:47;;;;;;;10.23;7.32;;;4.80;90.00;;;;;;4944027;28;20463;-28
2023/12/04 08:50:16;;;;;;;9.55;7.72;;;4.80;90.00;;;;;;4943614;28;20192;-28
2023/12/04 08:52:42;;;;;;;7.50;6.70;;;4.80;90.00;;;;;;4942432;29;20326;-33
2023/12/04 08:55:15;;;;;;;8.35;6.78;;;4.80;90.00;;;;;;4943157;28;20944;-30
2023/12/04 08:57:43;;;;;;;8.38;6.88;;;4.80;90.00;;;;;;4941773;29;20240;-33
2023/12/04 09:00:10;;;;;;;9.00;7.00;;;4.80;90.00;;;;;;4941482;29;20196;-32
2023/12/04 09:02:38;;;;;;;7.55;6.68;;;4.80;89.80;;;;;;4942123;29;20424;-33
2023/12/04 09:05:05;;;;;;;10.25;6.70;;;4.80;89.40;;;;;;4941702;28;20220;-31
2023/12/04 09:07:31;;;;;;;9.40;6.85;;;4.80;89.50;;;;;;4943827;28;20280;-30
2023/12/04 09:09:58;;;;;;;7.30;6.30;;;4.80;89.60;;;;;;4958081;28;20258;-32
2023/12/04 09:12:24;;;;;;;8.00;6.45;;;4.80;89.70;;;;;;4943329;28;20471;-31
2023/12/04 09:14:52;;;;;;;8.57;7.40;;;4.80;89.50;;;;;;4958207;28;20188;-35
2023/12/04 09:17:24;;;;;;;7.18;6.20;;;4.80;89.30;;;;;;4944127;28;20187;-32
2023/12/04 09:19:52;;;;;;;7.43;6.38;;;4.80;89.20;;;;;;4928596;29;20297;-30
2023/12/04 09:22:21;;;;;;;9.23;6.50;;;4.80;89.40;;;;;;4957466;28;20640;-30
2023/12/04 09:24:47;;;;;;;7.28;6.40;;;4.80;89.60;;;;;;4941569;28;20467;-32
2023/12/04 09:27:13;;;;;;;8.30;6.90;;;4.80;89.60;;;;;;4942926;28;20982;-34
2023/12/04 09:29:41;;;;;;;7.27;6.57;;;4.90;89.40;;;;;;4941669;29;20210;-31
2023/12/04 09:32:07;;;;;;;8.57;6.90;;;4.80;89.20;;;;;;4941534;29;20428;-32
2023/12/04 09:34:33;;;;;;;6.80;6.10;;;4.80;89.40;;;;;;4942985;28;20200;-31
2023/12/04 09:36:59;;;;;;;9.20;7.15;;;4.80;89.40;;;;;;4931036;28;20602;-31
2023/12/04 09:39:25;;;;;;;7.70;6.75;;;4.90;89.30;;;;;;4935747;29;20192;-34
2023/12/04 09:41:52;;;;;;;10.40;6.68;;;4.80;89.20;;;;;;4943547;29;20271;-32
2023/12/04 09:44:20;;;;;;;7.20;5.80;;;4.90;89.00;;;;;;4940970;28;20199;-33
2023/12/04 09:46:48;;;;;;;7.00;6.20;;;4.90;88.60;;;;;;4940736;29;20223;-31
2023/12/04 09:49:14;;;;;;;8.30;5.93;;;4.90;88.50;;;;;;4940685;29;20224;-33
2023/12/04 09:51:40;;;;;;;7.63;6.32;;;4.90;88.70;;;;;;4942400;28;20181;-33
2023/12/04 09:54:07;;;;;;;7.53;6.83;;;4.90;88.60;;;;;;4941058;28;20223;-31
2023/12/04 09:56:39;;;;;;;6.35;5.50;;;4.90;88.40;;;;;;4941481;29;20419;-34
2023/12/04 09:59:07;;;;;;;6.55;5.57;;;4.90;88.40;;;;;;4940425;29;20184;-33
2023/12/04 10:01:34;;;;;;;6.25;5.68;;;4.90;88.40;;;;;;4941951;28;20988;-31
2023/12/04 10:04:05;;;;;;;6.45;5.78;;;4.90;88.30;;;;;;4942164;28;20235;-33
2023/12/04 10:06:36;;;;;;;6.72;5.75;;;4.90;88.30;;;;;;4941883;28;21157;-29
2023/12/04 10:09:03;;;;;;;6.32;5.60;;;4.90;88.40;;;;;;4942121;28;20184;-27
2023/12/04 10:11:32;;;;;;;5.45;4.90;;;4.90;88.40;;;;;;4940529;29;20211;-31
2023/12/04 10:13:58;;;;;;;8.30;6.43;;;4.90;88.10;;;;;;4941929;28;20196;-33
2023/12/04 10:16:35;;;;;;;7.07;6.13;;;4.90;88.10;;;;;;4942129;28;20703;-29
2023/12/04 10:19:16;;;;;;;6.97;6.25;;;4.90;87.80;;;;;;4927468;29;20665;-36
2023/12/04 10:21:47;;;;;;;6.20;5.30;;;4.90;87.70;;;;;;4942453;28;20190;-33
2023/12/04 10:24:27;;;;;;;7.68;5.68;;;4.90;87.60;;;;;;4942445;28;20747;-33
2023/12/04 10:26:53;;;;;;;6.88;6.18;;;4.90;87.60;;;;;;4924094;29;20306;-29
2023/12/04 10:29:20;;;;;;;7.28;5.82;;;4.90;87.60;;;;;;4940007;29;20822;-34
2023/12/04 10:31:50;;;;;;;8.30;5.30;;;4.90;87.80;;;;;;4941428;28;20773;-31
2023/12/04 10:34:16;;;;;;;6.18;5.60;;;4.90;87.80;;;;;;4941621;28;20505;-31
2023/12/04 10:36:45;;;;;;;7.03;6.35;;;4.90;88.00;;;;;;4941624;28;20199;-31
2023/12/04 10:39:13;;;;;;;7.60;6.18;;;4.90;87.90;;;;;;4941818;28;20662;-35
2023/12/04 10:41:40;;;;;;;7.03;6.10;;;4.90;88.10;;;;;;4940399;29;20192;-33
2023/12/04 10:44:17;;;;;;;6.75;6.05;;;4.90;88.10;;;;;;4941932;28;20448;-29
2023/12/04 10:46:45;;;;;;;6.88;5.93;;;4.90;88.20;;;;;;4940528;29;20207;-31
2023/12/04 10:49:13;;;;;;;9.25;6.57;;;4.90;88.20;;;;;;4942754;28;20562;-31
2023/12/04 10:51:40;;;;;;;7.10;6.35;;;4.90;88.20;;;;;;4942129;29;20223;-31
2023/12/04 10:54:08;;;;;;;9.45;5.82;;;4.90;88.30;;;;;;4941677;28;20921;-31
2023/12/04 10:56:43;;;;;;;8.20;6.00;;;5.00;88.50;;;;;;4941651;28;20196;-30
2023/12/04 10:59:13;;;;;;;7.88;5.80;;;4.90;88.10;;;;;;4941720;28;20922;-30
2023/12/04 11:01:42;;;;;;;7.60;5.72;;;5.00;88.30;;;;;;4939614;29;20290;-31
2023/12/04 11:04:14;;;;;;;7.70;5.97;;;4.90;89.20;;;;;;4940097;28;20217;-31
2023/12/04 11:06:42;;;;;;;6.57;5.97;;;5.00;88.70;;;;;;4939278;29;20808;-30
2023/12/04 11:09:09;;;;;;;7.10;6.22;;;5.00;88.60;;;;;;4941181;28;20298;-30
2023/12/04 11:11:46;;;;;;;7.47;5.95;;;4.90;88.40;;;;;;4924107;29;20317;-33
2023/12/04 11:14:18;;;;;;;6.72;5.50;;;5.00;88.60;;;;;;4941040;28;20203;-33
2023/12/04 11:16:47;;;;;;;7.20;6.50;;;5.00;88.70;;;;;;4939386;29;20190;-28
2023/12/04 11:19:22;;;;;;;6.30;5.60;;;5.00;88.80;;;;;;4943373;28;20924;-30
2023/12/04 11:21:50;;;;;;;7.30;6.55;;;5.00;88.90;;;;;;4945330;28;20851;-30
2023/12/04 11:24:21;;;;;;;6.13;5.53;;;5.00;88.90;;;;;;4944024;28;20306;-36
2023/12/04 11:26:49;;;;;;;7.47;6.50;;;5.00;89.20;;;;;;4945649;28;20235;-36
2023/12/04 11:29:18;;;;;;;8.68;6.70;;;5.00;89.10;;;;;;4943231;29;20427;-34
2023/12/04 11:31:46;;;;;;;8.18;5.32;;;5.00;89.10;;;;;;4943374;29;20839;-37
2023/12/04 11:34:12;;;;;;;7.13;6.47;;;5.00;89.30;;;;;;4944930;28;20237;-31
2023/12/04 11:36:43;;;;;;;7.10;6.40;;;5.00;89.30;;;;;;4927953;29;20265;-35
2023/12/04 11:39:10;;;;;;;7.75;6.10;;;5.00;89.50;;;;;;4946235;28;20212;-32
2023/12/04 11:41:37;;;;;;;7.63;6.85;;;5.00;89.60;;;;;;4926831;29;20192;-31
2023/12/04 11:44:12;;;;;;;8.23;6.13;;;5.00;89.60;;;;;;4942804;28;20255;-32
2023/12/04 11:47:03;;;;;;;7.18;6.22;;;5.00;89.60;;;;;;4941971;29;20318;-31
2023/12/04 11:49:30;;;;;;;8.60;7.00;;;5.00;89.80;;;;;;4942164;29;20200;-30
2023/12/04 11:52:01;;;;;;;7.95;6.57;;;5.00;90.00;;;;;;4944163;28;20667;-28
2023/12/04 11:54:49;;;;;;;7.07;6.45;;;5.00;90.10;;;;;;4942683;28;20224;-32
2023/12/04 11:57:18;;;;;;;6.38;5.88;;;5.00;90.20;;;;;;4942285;29;20194;-32
2023/12/04 11:59:49;;;;;;;6.73;5.93;;;5.00;90.30;;;;;;4958776;28;20200;-34
2023/12/04 12:02:18;;;;;;;7.13;6.25;;;5.00;90.50;;;;;;4942012;29;20509;-33
2023/12/04 12:04:45;;;;;;;10.38;7.45;;;5.00;90.60;;;;;;4926732;29;20207;-30
2023/12/04 12:07:11;;;;;;;7.72;6.63;;;5.10;90.70;;;;;;4943318;28;20219;-30
2023/12/04 12:09:41;;;;;;;7.80;6.50;;;5.00;90.80;;;;;;4926365;29;20241;-33
2023/12/04 12:12:08;;;;;;;9.90;7.05;;;5.00;90.90;;;;;;4944188;28;20215;-33
2023/12/04 12:14:34;;;;;;;7.63;6.38;;;5.00;91.00;;;;;;4926662;29;20207;-34
2023/12/04 12:17:03;;;;;;;8.30;6.70;;;5.00;91.00;;;;;;4943761;28;20641;-28
2023/12/04 12:19:29;;;;;;;6.68;5.95;;;5.00;91.10;;;;;;4941646;29;20915;-32
2023/12/04 12:21:58;;;;;;;8.77;6.60;;;5.00;91.10;;;;;;4943369;28;20184;-31
2023/12/04 12:24:27;;;;;;;9.00;7.70;;;5.00;91.20;;;;;;4943655;28;20828;-28
2023/12/04 12:26:55;;;;;;;7.90;6.63;;;5.10;91.30;;;;;;4943486;29;20958;-30
2023/12/04 12:29:24;;;;;;;8.20;6.63;;;5.10;91.40;;;;;;4943577;28;20278;-29
2023/12/04 12:31:50;;;;;;;7.03;6.07;;;5.10;91.80;;;;;;4941390;28;20187;-31
2023/12/04 12:34:19;;;;;;;9.48;7.32;;;5.00;91.40;;;;;;4941314;28;20196;-32
2023/12/04 12:36:46;;;;;;;8.18;7.38;;;5.00;91.50;;;;;;4942154;28;20262;-34
2023/12/04 12:39:15;;;;;;;7.30;6.30;;;5.00;91.50;;;;;;4942426;28;20290;-31
2023/12/04 12:41:50;;;;;;;10.05;7.22;;;5.10;91.60;;;;;;4943361;28;20175;-30
2023/12/04 12:44:17;;;;;;;8.98;7.10;;;5.10;91.70;;;;;;4949072;28;20350;-36
2023/12/04 12:46:49;;;;;;;9.43;7.15;;;5.10;91.70;;;;;;4943281;28;20565;-28
2023/12/04 12:49:19;;;;;;;8.20;7.20;;;5.10;91.80;;;;;;4939734;29;20619;-30
2023/12/04 12:51:45;;;;;;;8.07;6.90;;;5.00;91.80;;;;;;4939485;29;20218;-29
2023/12/04 12:54:12;;;;;;;8.30;6.63;;;5.10;91.90;;;;;;4940490;28;20326;-28
2023/12/04 12:56:38;;;;;;;10.18;7.40;;;5.00;91.90;;;;;;4941124;28;20194;-30
2023/12/04 12:59:05;;;;;;;9.50;6.72;;;5.10;91.90;;;;;;4940874;28;20206;-28